sensor_id;sensor_type;location;lat;lon;timestamp;temperature;humidity
37642;DHT22;23486;51.956;5.888;2024-01-10T00:01:18;-3.20;89.00
37642;DHT22;23486;51.956;5.888;2024-01-10T00:03:44;-3.20;89.20
37642;DHT22;23486;51.956;5.888;2024-01-10T00:06:10;-3.20;89.50
37642;DHT22;23486;51.956;5.888;2024-01-10T00:08:36;-3.30;89.60
37642;DHT22;23486;51.956;5.888;2024-01-10T00:11:01;-3.30;90.00
37642;DHT22;23486;51.956;5.888;2024-01-10T00:13:33;-3.30;90.10
37642;DHT22;23486;51.956;5.888;2024-01-10T00:15:59;-3.40;90.20
37642;DHT22;23486;51.956;5.888;2024-01-10T00:18:25;-3.40;90.30
37642;DHT22;23486;51.956;5.888;2024-01-10T00:20:53;-3.40;90.40
37642;DHT22;23486;51.956;5.888;2024-01-10T00:23:20;-3.40;90.50
37642;DHT22;23486;51.956;5.888;2024-01-10T00:25:46;-3.40;90.60
37642;DHT22;23486;51.956;5.888;2024-01-10T00:28:11;-3.40;90.80
37642;DHT22;23486;51.956;5.888;2024-01-10T00:30:38;-3.40;90.90
37642;DHT22;23486;51.956;5.888;2024-01-10T00:33:04;-3.40;91.00
37642;DHT22;23486;51.956;5.888;2024-01-10T00:35:30;-3.50;91.10
37642;DHT22;23486;51.956;5.888;2024-01-10T00:37:55;-3.50;91.20
37642;DHT22;23486;51.956;5.888;2024-01-10T00:40:21;-3.50;91.30
37642;DHT22;23486;51.956;5.888;2024-01-10T00:42:47;-3.50;91.40
37642;DHT22;23486;51.956;5.888;2024-01-10T00:45:13;-3.50;91.50
37642;DHT22;23486;51.956;5.888;2024-01-10T00:47:38;-3.50;91.60
37642;DHT22;23486;51.956;5.888;2024-01-10T00:50:07;-3.50;91.70
37642;DHT22;23486;51.956;5.888;2024-01-10T00:52:33;-3.60;91.80
37642;DHT22;23486;51.956;5.888;2024-01-10T00:54:58;-3.60;91.90
37642;DHT22;23486;51.956;5.888;2024-01-10T00:57:24;-3.60;92.00
37642;DHT22;23486;51.956;5.888;2024-01-10T00:59:52;-3.60;92.00
37642;DHT22;23486;51.956;5.888;2024-01-10T01:02:18;-3.60;92.10
37642;DHT22;23486;51.956;5.888;2024-01-10T01:04:43;-3.60;92.50
37642;DHT22;23486;51.956;5.888;2024-01-10T01:07:09;-3.60;92.30
37642;DHT22;23486;51.956;5.888;2024-01-10T01:09:35;-3.60;92.30
37642;DHT22;23486;51.956;5.888;2024-01-10T01:12:00;-3.60;92.40
37642;DHT22;23486;51.956;5.888;2024-01-10T01:14:26;-3.60;92.50
37642;DHT22;23486;51.956;5.888;2024-01-10T01:16:52;-3.60;92.60
37642;DHT22;23486;51.956;5.888;2024-01-10T01:19:17;-3.60;92.60
37642;DHT22;23486;51.956;5.888;2024-01-10T01:21:43;-3.60;92.70
37642;DHT22;23486;51.956;5.888;2024-01-10T01:24:09;-3.60;92.70
37642;DHT22;23486;51.956;5.888;2024-01-10T01:26:34;-3.60;92.70
37642;DHT22;23486;51.956;5.888;2024-01-10T01:29:00;-3.60;92.80
37642;DHT22;23486;51.956;5.888;2024-01-10T01:31:25;-3.60;92.80
37642;DHT22;23486;51.956;5.888;2024-01-10T01:33:54;-3.60;92.90
37642;DHT22;23486;51.956;5.888;2024-01-10T01:36:19;-3.70;92.90
37642;DHT22;23486;51.956;5.888;2024-01-10T01:38:46;-3.70;93.00
37642;DHT22;23486;51.956;5.888;2024-01-10T01:41:12;-3.70;93.10
37642;DHT22;23486;51.956;5.888;2024-01-10T01:43:39;-3.70;93.00
37642;DHT22;23486;51.956;5.888;2024-01-10T01:46:05;-3.70;93.00
37642;DHT22;23486;51.956;5.888;2024-01-10T01:48:31;-3.70;93.10
37642;DHT22;23486;51.956;5.888;2024-01-10T01:51:09;-3.70;93.00
37642;DHT22;23486;51.956;5.888;2024-01-10T01:53:36;-3.60;93.10
37642;DHT22;23486;51.956;5.888;2024-01-10T01:56:06;-3.70;93.10
37642;DHT22;23486;51.956;5.888;2024-01-10T01:58:32;-3.70;93.10
37642;DHT22;23486;51.956;5.888;2024-01-10T02:00:59;-3.70;93.10
37642;DHT22;23486;51.956;5.888;2024-01-10T02:03:25;-3.70;93.20
37642;DHT22;23486;51.956;5.888;2024-01-10T02:05:52;-3.70;93.20
37642;DHT22;23486;51.956;5.888;2024-01-10T02:08:18;-3.70;93.20
37642;DHT22;23486;51.956;5.888;2024-01-10T02:10:43;-3.70;93.20
37642;DHT22;23486;51.956;5.888;2024-01-10T02:13:09;-3.70;93.20
37642;DHT22;23486;51.956;5.888;2024-01-10T02:15:37;-3.70;93.10
37642;DHT22;23486;51.956;5.888;2024-01-10T02:18:04;-3.70;93.20
37642;DHT22;23486;51.956;5.888;2024-01-10T02:20:31;-3.70;93.10
37642;DHT22;23486;51.956;5.888;2024-01-10T02:22:57;-3.70;93.20
37642;DHT22;23486;51.956;5.888;2024-01-10T02:25:22;-3.70;93.20
37642;DHT22;23486;51.956;5.888;2024-01-10T02:27:48;-3.70;93.10
37642;DHT22;23486;51.956;5.888;2024-01-10T02:30:14;-3.70;93.10
37642;DHT22;23486;51.956;5.888;2024-01-10T02:32:39;-3.70;93.10
37642;DHT22;23486;51.956;5.888;2024-01-10T02:35:05;-3.70;93.10
37642;DHT22;23486;51.956;5.888;2024-01-10T02:37:31;-3.60;93.10
37642;DHT22;23486;51.956;5.888;2024-01-10T02:39:57;-3.60;93.10
37642;DHT22;23486;51.956;5.888;2024-01-10T02:42:23;-3.70;93.10
37642;DHT22;23486;51.956;5.888;2024-01-10T02:44:48;-3.60;93.10
37642;DHT22;23486;51.956;5.888;2024-01-10T02:47:14;-3.70;93.20
37642;DHT22;23486;51.956;5.888;2024-01-10T02:49:40;-3.70;93.20
37642;DHT22;23486;51.956;5.888;2024-01-10T02:52:08;-3.70;93.30
37642;DHT22;23486;51.956;5.888;2024-01-10T02:54:34;-3.70;93.40
37642;DHT22;23486;51.956;5.888;2024-01-10T02:57:02;-3.70;93.50
37642;DHT22;23486;51.956;5.888;2024-01-10T02:59:28;-3.80;93.50
37642;DHT22;23486;51.956;5.888;2024-01-10T03:01:53;-3.80;93.60
37642;DHT22;23486;51.956;5.888;2024-01-10T03:04:19;-3.80;93.70
37642;DHT22;23486;51.956;5.888;2024-01-10T03:06:46;-3.80;93.70
37642;DHT22;23486;51.956;5.888;2024-01-10T03:09:11;-3.80;93.80
37642;DHT22;23486;51.956;5.888;2024-01-10T03:11:37;-3.80;93.80
37642;DHT22;23486;51.956;5.888;2024-01-10T03:14:12;-3.80;93.90
37642;DHT22;23486;51.956;5.888;2024-01-10T03:16:37;-3.80;93.90
37642;DHT22;23486;51.956;5.888;2024-01-10T03:19:03;-3.80;93.90
37642;DHT22;23486;51.956;5.888;2024-01-10T03:21:29;-3.80;93.90
37642;DHT22;23486;51.956;5.888;2024-01-10T03:24:01;-3.80;94.00
37642;DHT22;23486;51.956;5.888;2024-01-10T03:26:28;-3.90;94.00
37642;DHT22;23486;51.956;5.888;2024-01-10T03:28:55;-3.90;94.10
37642;DHT22;23486;51.956;5.888;2024-01-10T03:31:21;-3.90;94.10
37642;DHT22;23486;51.956;5.888;2024-01-10T03:33:47;-3.90;94.20
37642;DHT22;23486;51.956;5.888;2024-01-10T03:36:15;-3.90;94.30
37642;DHT22;23486;51.956;5.888;2024-01-10T03:38:41;-4.00;94.40
37642;DHT22;23486;51.956;5.888;2024-01-10T03:41:06;-4.00;94.40
37642;DHT22;23486;51.956;5.888;2024-01-10T03:43:32;-4.00;94.50
37642;DHT22;23486;51.956;5.888;2024-01-10T03:45:58;-4.10;94.60
37642;DHT22;23486;51.956;5.888;2024-01-10T03:48:23;-4.10;94.70
37642;DHT22;23486;51.956;5.888;2024-01-10T03:50:49;-4.10;94.70
37642;DHT22;23486;51.956;5.888;2024-01-10T03:53:15;-4.10;94.80
37642;DHT22;23486;51.956;5.888;2024-01-10T03:55:40;-4.10;95.10
37642;DHT22;23486;51.956;5.888;2024-01-10T03:58:06;-4.20;95.00
37642;DHT22;23486;51.956;5.888;2024-01-10T04:00:32;-4.20;95.00
37642;DHT22;23486;51.956;5.888;2024-01-10T04:02:57;-4.20;95.10
37642;DHT22;23486;51.956;5.888;2024-01-10T04:05:23;-4.20;95.10
37642;DHT22;23486;51.956;5.888;2024-01-10T04:07:51;-4.20;95.20
37642;DHT22;23486;51.956;5.888;2024-01-10T04:10:16;-4.30;95.30
37642;DHT22;23486;51.956;5.888;2024-01-10T04:12:43;-4.30;95.30
37642;DHT22;23486;51.956;5.888;2024-01-10T04:15:09;-4.30;95.40
37642;DHT22;23486;51.956;5.888;2024-01-10T04:17:35;-4.40;95.50
37642;DHT22;23486;51.956;5.888;2024-01-10T04:20:01;-4.40;95.50
37642;DHT22;23486;51.956;5.888;2024-01-10T04:22:26;-4.40;95.60
37642;DHT22;23486;51.956;5.888;2024-01-10T04:24:52;-4.40;95.70
37642;DHT22;23486;51.956;5.888;2024-01-10T04:27:17;-4.40;95.80
37642;DHT22;23486;51.956;5.888;2024-01-10T04:29:46;-4.40;95.80
37642;DHT22;23486;51.956;5.888;2024-01-10T04:32:11;-4.40;96.00
37642;DHT22;23486;51.956;5.888;2024-01-10T04:34:37;-4.40;96.10
37642;DHT22;23486;51.956;5.888;2024-01-10T04:37:03;-4.50;96.10
37642;DHT22;23486;51.956;5.888;2024-01-10T04:39:28;-4.50;96.20
37642;DHT22;23486;51.956;5.888;2024-01-10T04:41:54;-4.50;96.20
37642;DHT22;23486;51.956;5.888;2024-01-10T04:44:20;-4.50;96.20
37642;DHT22;23486;51.956;5.888;2024-01-10T04:46:46;-4.50;96.30
37642;DHT22;23486;51.956;5.888;2024-01-10T04:49:11;-4.50;96.30
37642;DHT22;23486;51.956;5.888;2024-01-10T04:51:37;-4.50;96.50
37642;DHT22;23486;51.956;5.888;2024-01-10T04:54:03;-4.50;96.60
37642;DHT22;23486;51.956;5.888;2024-01-10T04:56:29;-4.50;96.70
37642;DHT22;23486;51.956;5.888;2024-01-10T04:58:54;-4.50;96.70
37642;DHT22;23486;51.956;5.888;2024-01-10T05:01:20;-4.50;96.70
37642;DHT22;23486;51.956;5.888;2024-01-10T05:03:46;-4.50;97.10
37642;DHT22;23486;51.956;5.888;2024-01-10T05:06:11;-4.50;96.90
37642;DHT22;23486;51.956;5.888;2024-01-10T05:08:37;-4.50;97.00
37642;DHT22;23486;51.956;5.888;2024-01-10T05:11:02;-4.60;97.10
37642;DHT22;23486;51.956;5.888;2024-01-10T05:13:28;-4.60;97.20
37642;DHT22;23486;51.956;5.888;2024-01-10T05:15:54;-4.60;97.40
37642;DHT22;23486;51.956;5.888;2024-01-10T05:18:20;-4.60;97.50
37642;DHT22;23486;51.956;5.888;2024-01-10T05:20:46;-4.60;97.70
37642;DHT22;23486;51.956;5.888;2024-01-10T05:23:12;-4.60;97.70
37642;DHT22;23486;51.956;5.888;2024-01-10T05:25:37;-4.60;97.90
37642;DHT22;23486;51.956;5.888;2024-01-10T05:28:03;-4.60;98.10
37642;DHT22;23486;51.956;5.888;2024-01-10T05:30:29;-4.60;98.10
37642;DHT22;23486;51.956;5.888;2024-01-10T05:32:55;-4.60;98.20
37642;DHT22;23486;51.956;5.888;2024-01-10T05:35:20;-4.60;98.30
37642;DHT22;23486;51.956;5.888;2024-01-10T05:37:46;-4.60;98.40
37642;DHT22;23486;51.956;5.888;2024-01-10T05:40:12;-4.60;98.30
37642;DHT22;23486;51.956;5.888;2024-01-10T05:42:37;-4.60;98.40
37642;DHT22;23486;51.956;5.888;2024-01-10T05:45:04;-4.60;98.50
37642;DHT22;23486;51.956;5.888;2024-01-10T05:47:30;-4.60;98.80
37642;DHT22;23486;51.956;5.888;2024-01-10T05:49:55;-4.60;98.60
37642;DHT22;23486;51.956;5.888;2024-01-10T05:52:21;-4.60;98.60
37642;DHT22;23486;51.956;5.888;2024-01-10T05:54:47;-4.60;98.60
37642;DHT22;23486;51.956;5.888;2024-01-10T05:57:14;-4.60;98.70
37642;DHT22;23486;51.956;5.888;2024-01-10T05:59:39;-4.50;98.70
37642;DHT22;23486;51.956;5.888;2024-01-10T06:02:05;-4.50;98.70
37642;DHT22;23486;51.956;5.888;2024-01-10T06:04:31;-4.50;98.80
37642;DHT22;23486;51.956;5.888;2024-01-10T06:07:00;-4.50;98.70
37642;DHT22;23486;51.956;5.888;2024-01-10T06:09:26;-4.50;98.70
37642;DHT22;23486;51.956;5.888;2024-01-10T06:11:52;-4.50;98.80
37642;DHT22;23486;51.956;5.888;2024-01-10T06:14:18;-4.50;98.80
37642;DHT22;23486;51.956;5.888;2024-01-10T06:16:44;-4.50;98.80
37642;DHT22;23486;51.956;5.888;2024-01-10T06:19:10;-4.50;98.90
37642;DHT22;23486;51.956;5.888;2024-01-10T06:21:36;-4.50;98.90
37642;DHT22;23486;51.956;5.888;2024-01-10T06:24:02;-4.50;98.90
37642;DHT22;23486;51.956;5.888;2024-01-10T06:26:28;-4.60;99.10
37642;DHT22;23486;51.956;5.888;2024-01-10T06:28:57;-4.60;99.10
37642;DHT22;23486;51.956;5.888;2024-01-10T06:31:22;-4.60;99.10
37642;DHT22;23486;51.956;5.888;2024-01-10T06:33:49;-4.60;99.20
37642;DHT22;23486;51.956;5.888;2024-01-10T06:36:14;-4.60;99.30
37642;DHT22;23486;51.956;5.888;2024-01-10T06:38:40;-4.60;99.30
37642;DHT22;23486;51.956;5.888;2024-01-10T06:41:09;-4.60;99.40
37642;DHT22;23486;51.956;5.888;2024-01-10T06:43:38;-4.60;99.40
37642;DHT22;23486;51.956;5.888;2024-01-10T06:46:04;-4.70;99.40
37642;DHT22;23486;51.956;5.888;2024-01-10T06:48:30;-4.70;99.40
37642;DHT22;23486;51.956;5.888;2024-01-10T06:50:57;-4.70;99.50
37642;DHT22;23486;51.956;5.888;2024-01-10T06:53:22;-4.70;99.50
37642;DHT22;23486;51.956;5.888;2024-01-10T06:55:48;-4.60;99.50
37642;DHT22;23486;51.956;5.888;2024-01-10T06:58:13;-4.70;99.50
37642;DHT22;23486;51.956;5.888;2024-01-10T07:00:39;-4.70;99.50
37642;DHT22;23486;51.956;5.888;2024-01-10T07:03:05;-4.70;99.50
37642;DHT22;23486;51.956;5.888;2024-01-10T07:05:30;-4.70;99.70
37642;DHT22;23486;51.956;5.888;2024-01-10T07:07:58;-4.60;99.40
37642;DHT22;23486;51.956;5.888;2024-01-10T07:10:23;-4.60;99.40
37642;DHT22;23486;51.956;5.888;2024-01-10T07:12:53;-4.70;99.40
37642;DHT22;23486;51.956;5.888;2024-01-10T07:15:19;-4.70;99.40
37642;DHT22;23486;51.956;5.888;2024-01-10T07:17:45;-4.70;99.50
37642;DHT22;23486;51.956;5.888;2024-01-10T07:20:11;-4.70;99.50
37642;DHT22;23486;51.956;5.888;2024-01-10T07:22:37;-4.60;99.50
37642;DHT22;23486;51.956;5.888;2024-01-10T07:25:07;-4.60;99.50
37642;DHT22;23486;51.956;5.888;2024-01-10T07:27:34;-4.60;99.50
37642;DHT22;23486;51.956;5.888;2024-01-10T07:30:04;-4.60;99.40
37642;DHT22;23486;51.956;5.888;2024-01-10T07:32:30;-4.60;99.40
37642;DHT22;23486;51.956;5.888;2024-01-10T07:34:56;-4.60;99.50
37642;DHT22;23486;51.956;5.888;2024-01-10T07:37:23;-4.70;99.50
37642;DHT22;23486;51.956;5.888;2024-01-10T07:39:49;-4.60;99.50
37642;DHT22;23486;51.956;5.888;2024-01-10T07:42:15;-4.60;99.50
37642;DHT22;23486;51.956;5.888;2024-01-10T07:44:43;-4.60;99.50
37642;DHT22;23486;51.956;5.888;2024-01-10T07:47:09;-4.60;99.40
37642;DHT22;23486;51.956;5.888;2024-01-10T07:49:35;-4.60;99.40
37642;DHT22;23486;51.956;5.888;2024-01-10T07:52:03;-4.60;99.50
37642;DHT22;23486;51.956;5.888;2024-01-10T07:54:29;-4.70;99.50
37642;DHT22;23486;51.956;5.888;2024-01-10T07:56:57;-4.70;99.60
37642;DHT22;23486;51.956;5.888;2024-01-10T07:59:23;-4.70;99.70
37642;DHT22;23486;51.956;5.888;2024-01-10T08:01:56;-4.70;99.70
37642;DHT22;23486;51.956;5.888;2024-01-10T08:04:24;-4.70;99.70
37642;DHT22;23486;51.956;5.888;2024-01-10T08:06:50;-4.70;99.80
37642;DHT22;23486;51.956;5.888;2024-01-10T08:09:15;-4.70;99.90
37642;DHT22;23486;51.956;5.888;2024-01-10T08:11:41;-4.60;99.90
37642;DHT22;23486;51.956;5.888;2024-01-10T08:14:13;-4.60;99.90
37642;DHT22;23486;51.956;5.888;2024-01-10T08:16:39;-4.60;99.90
37642;DHT22;23486;51.956;5.888;2024-01-10T08:19:05;-4.50;99.90
37642;DHT22;23486;51.956;5.888;2024-01-10T08:21:30;-4.50;99.90
37642;DHT22;23486;51.956;5.888;2024-01-10T08:23:56;-4.50;99.90
37642;DHT22;23486;51.956;5.888;2024-01-10T08:26:21;-4.50;99.90
37642;DHT22;23486;51.956;5.888;2024-01-10T08:28:47;-4.40;99.90
37642;DHT22;23486;51.956;5.888;2024-01-10T08:31:16;-4.40;99.90
37642;DHT22;23486;51.956;5.888;2024-01-10T08:33:42;-4.30;99.90
37642;DHT22;23486;51.956;5.888;2024-01-10T08:36:08;-4.30;99.90
37642;DHT22;23486;51.956;5.888;2024-01-10T08:38:35;-4.30;99.90
37642;DHT22;23486;51.956;5.888;2024-01-10T08:41:01;-4.30;99.80
37642;DHT22;23486;51.956;5.888;2024-01-10T08:43:28;-4.20;99.80
37642;DHT22;23486;51.956;5.888;2024-01-10T08:45:57;-4.20;99.70
37642;DHT22;23486;51.956;5.888;2024-01-10T08:48:23;-4.20;99.40
37642;DHT22;23486;51.956;5.888;2024-01-10T08:50:50;-4.10;99.60
37642;DHT22;23486;51.956;5.888;2024-01-10T08:53:15;-4.20;99.40
37642;DHT22;23486;51.956;5.888;2024-01-10T08:55:41;-4.10;99.30
37642;DHT22;23486;51.956;5.888;2024-01-10T08:58:07;-4.10;99.10
37642;DHT22;23486;51.956;5.888;2024-01-10T09:00:35;-4.10;98.90
37642;DHT22;23486;51.956;5.888;2024-01-10T09:03:02;-4.00;98.80
37642;DHT22;23486;51.956;5.888;2024-01-10T09:05:27;-4.00;98.80
37642;DHT22;23486;51.956;5.888;2024-01-10T09:07:56;-4.00;98.70
37642;DHT22;23486;51.956;5.888;2024-01-10T09:10:22;-3.90;98.60
37642;DHT22;23486;51.956;5.888;2024-01-10T09:12:48;-3.90;98.10
37642;DHT22;23486;51.956;5.888;2024-01-10T09:15:14;-3.90;98.20
37642;DHT22;23486;51.956;5.888;2024-01-10T09:17:43;-3.80;98.30
37642;DHT22;23486;51.956;5.888;2024-01-10T09:20:10;-3.80;98.20
37642;DHT22;23486;51.956;5.888;2024-01-10T09:22:37;-3.80;98.20
37642;DHT22;23486;51.956;5.888;2024-01-10T09:25:06;-3.70;98.10
37642;DHT22;23486;51.956;5.888;2024-01-10T09:27:32;-3.70;98.20
37642;DHT22;23486;51.956;5.888;2024-01-10T09:30:01;-3.70;98.00
37642;DHT22;23486;51.956;5.888;2024-01-10T09:32:28;-3.60;97.90
37642;DHT22;23486;51.956;5.888;2024-01-10T09:34:55;-3.60;97.90
37642;DHT22;23486;51.956;5.888;2024-01-10T09:37:21;-3.60;97.70
37642;DHT22;23486;51.956;5.888;2024-01-10T09:39:46;-3.50;97.80
37642;DHT22;23486;51.956;5.888;2024-01-10T09:42:12;-3.50;97.70
37642;DHT22;23486;51.956;5.888;2024-01-10T09:44:42;-3.50;97.60
37642;DHT22;23486;51.956;5.888;2024-01-10T09:47:09;-3.40;97.50
37642;DHT22;23486;51.956;5.888;2024-01-10T09:49:34;-3.40;97.10
37642;DHT22;23486;51.956;5.888;2024-01-10T09:52:04;-3.30;97.50
37642;DHT22;23486;51.956;5.888;2024-01-10T09:54:30;-3.30;97.40
37642;DHT22;23486;51.956;5.888;2024-01-10T09:56:57;-3.30;97.50
37642;DHT22;23486;51.956;5.888;2024-01-10T09:59:26;-3.20;97.30
37642;DHT22;23486;51.956;5.888;2024-01-10T10:01:56;-3.10;97.30
37642;DHT22;23486;51.956;5.888;2024-01-10T10:04:27;-3.10;97.20
37642;DHT22;23486;51.956;5.888;2024-01-10T10:07:02;-3.00;96.90
37642;DHT22;23486;51.956;5.888;2024-01-10T10:09:28;-3.00;97.00
37642;DHT22;23486;51.956;5.888;2024-01-10T10:11:55;-3.00;97.00
37642;DHT22;23486;51.956;5.888;2024-01-10T10:14:21;-2.90;96.70
37642;DHT22;23486;51.956;5.888;2024-01-10T10:16:47;-2.80;97.00
37642;DHT22;23486;51.956;5.888;2024-01-10T10:19:22;-2.80;97.00
37642;DHT22;23486;51.956;5.888;2024-01-10T10:21:48;-2.80;97.00
37642;DHT22;23486;51.956;5.888;2024-01-10T10:24:14;-2.70;97.00
37642;DHT22;23486;51.956;5.888;2024-01-10T10:26:40;-2.70;96.90
37642;DHT22;23486;51.956;5.888;2024-01-10T10:29:09;-2.70;96.90
37642;DHT22;23486;51.956;5.888;2024-01-10T10:31:35;-2.60;96.60
37642;DHT22;23486;51.956;5.888;2024-01-10T10:34:01;-2.60;96.70
37642;DHT22;23486;51.956;5.888;2024-01-10T10:36:30;-2.50;96.80
37642;DHT22;23486;51.956;5.888;2024-01-10T10:38:59;-2.40;96.80
37642;DHT22;23486;51.956;5.888;2024-01-10T10:41:29;-2.40;96.80
37642;DHT22;23486;51.956;5.888;2024-01-10T10:43:56;-2.30;96.80
37642;DHT22;23486;51.956;5.888;2024-01-10T10:46:23;-2.30;96.60
37642;DHT22;23486;51.956;5.888;2024-01-10T10:48:56;-2.30;96.70
37642;DHT22;23486;51.956;5.888;2024-01-10T10:51:32;-2.20;96.60
37642;DHT22;23486;51.956;5.888;2024-01-10T10:54:02;-2.20;96.20
37642;DHT22;23486;51.956;5.888;2024-01-10T10:56:32;-2.10;96.20
37642;DHT22;23486;51.956;5.888;2024-01-10T10:58:58;-2.10;96.30
37642;DHT22;23486;51.956;5.888;2024-01-10T11:01:25;-2.00;96.20
37642;DHT22;23486;51.956;5.888;2024-01-10T11:03:52;-2.00;96.30
37642;DHT22;23486;51.956;5.888;2024-01-10T11:06:18;-2.00;95.80
37642;DHT22;23486;51.956;5.888;2024-01-10T11:08:46;-1.90;95.80
37642;DHT22;23486;51.956;5.888;2024-01-10T11:24:22;-1.70;93.80
37642;DHT22;23486;51.956;5.888;2024-01-10T11:26:48;-1.60;94.10
37642;DHT22;23486;51.956;5.888;2024-01-10T11:29:15;-1.60;94.30
37642;DHT22;23486;51.956;5.888;2024-01-10T11:31:41;-1.50;94.40
37642;DHT22;23486;51.956;5.888;2024-01-10T11:34:06;-1.50;94.50
37642;DHT22;23486;51.956;5.888;2024-01-10T11:36:34;-1.50;94.40
37642;DHT22;23486;51.956;5.888;2024-01-10T11:39:03;-1.40;94.60
37642;DHT22;23486;51.956;5.888;2024-01-10T11:46:41;-1.30;93.80
37642;DHT22;23486;51.956;5.888;2024-01-10T11:49:10;-1.30;94.00
37642;DHT22;23486;51.956;5.888;2024-01-10T11:51:43;-1.30;94.00
37642;DHT22;23486;51.956;5.888;2024-01-10T11:54:08;-1.30;93.60
37642;DHT22;23486;51.956;5.888;2024-01-10T11:56:41;-1.20;93.30
37642;DHT22;23486;51.956;5.888;2024-01-10T11:59:09;-1.20;92.70
37642;DHT22;23486;51.956;5.888;2024-01-10T12:01:37;-1.10;92.80
37642;DHT22;23486;51.956;5.888;2024-01-10T12:04:03;-1.10;93.00
37642;DHT22;23486;51.956;5.888;2024-01-10T12:06:40;-1.10;92.70
37642;DHT22;23486;51.956;5.888;2024-01-10T12:09:05;-1.00;93.00
37642;DHT22;23486;51.956;5.888;2024-01-10T12:11:38;-1.00;93.20
37642;DHT22;23486;51.956;5.888;2024-01-10T12:14:04;-0.90;93.10
37642;DHT22;23486;51.956;5.888;2024-01-10T12:16:32;-0.90;93.20
37642;DHT22;23486;51.956;5.888;2024-01-10T12:18:58;-0.90;93.20
37642;DHT22;23486;51.956;5.888;2024-01-10T12:21:23;-0.90;93.30
37642;DHT22;23486;51.956;5.888;2024-01-10T12:23:50;-0.90;93.00
37642;DHT22;23486;51.956;5.888;2024-01-10T12:26:18;-0.80;92.70
37642;DHT22;23486;51.956;5.888;2024-01-10T12:28:54;-0.80;92.90
37642;DHT22;23486;51.956;5.888;2024-01-10T12:31:20;-0.80;92.60
37642;DHT22;23486;51.956;5.888;2024-01-10T12:33:48;-0.80;91.80
37642;DHT22;23486;51.956;5.888;2024-01-10T12:36:17;-0.70;92.20
37642;DHT22;23486;51.956;5.888;2024-01-10T12:38:44;-0.70;91.60
37642;DHT22;23486;51.956;5.888;2024-01-10T12:41:15;-0.70;91.70
37642;DHT22;23486;51.956;5.888;2024-01-10T12:43:42;-0.60;90.90
37642;DHT22;23486;51.956;5.888;2024-01-10T12:46:11;-0.60;91.00
37642;DHT22;23486;51.956;5.888;2024-01-10T12:48:41;-0.60;90.70
37642;DHT22;23486;51.956;5.888;2024-01-10T12:51:11;-0.60;90.70
37642;DHT22;23486;51.956;5.888;2024-01-10T12:53:42;-0.50;90.40
37642;DHT22;23486;51.956;5.888;2024-01-10T12:56:09;-0.50;90.30
37642;DHT22;23486;51.956;5.888;2024-01-10T12:58:39;-0.50;90.70
37642;DHT22;23486;51.956;5.888;2024-01-10T13:01:05;-0.50;90.90
37642;DHT22;23486;51.956;5.888;2024-01-10T13:03:33;-0.50;91.10
37642;DHT22;23486;51.956;5.888;2024-01-10T13:06:02;-0.40;90.80
37642;DHT22;23486;51.956;5.888;2024-01-10T13:08:30;-0.40;90.80
37642;DHT22;23486;51.956;5.888;2024-01-10T13:10:58;-0.40;90.80
37642;DHT22;23486;51.956;5.888;2024-01-10T13:13:25;-0.40;90.40
37642;DHT22;23486;51.956;5.888;2024-01-10T13:15:51;-0.40;90.80
37642;DHT22;23486;51.956;5.888;2024-01-10T13:18:17;-0.30;90.80
37642;DHT22;23486;51.956;5.888;2024-01-10T13:20:43;-0.30;90.70
37642;DHT22;23486;51.956;5.888;2024-01-10T13:23:08;-0.30;90.90
37642;DHT22;23486;51.956;5.888;2024-01-10T13:25:35;-0.30;90.70
37642;DHT22;23486;51.956;5.888;2024-01-10T13:28:01;-0.30;91.00
37642;DHT22;23486;51.956;5.888;2024-01-10T13:30:27;-0.30;90.50
37642;DHT22;23486;51.956;5.888;2024-01-10T13:32:52;-0.20;90.10
37642;DHT22;23486;51.956;5.888;2024-01-10T13:35:18;-0.20;90.20
37642;DHT22;23486;51.956;5.888;2024-01-10T13:37:44;-0.10;90.00
37642;DHT22;23486;51.956;5.888;2024-01-10T13:40:10;-0.10;90.20
37642;DHT22;23486;51.956;5.888;2024-01-10T13:42:42;-0.10;90.10
37642;DHT22;23486;51.956;5.888;2024-01-10T13:45:09;-0.10;89.80
37642;DHT22;23486;51.956;5.888;2024-01-10T13:47:39;-0.10;88.90
37642;DHT22;23486;51.956;5.888;2024-01-10T13:50:05;-0.20;88.80
37642;DHT22;23486;51.956;5.888;2024-01-10T13:52:32;-0.20;89.20
37642;DHT22;23486;51.956;5.888;2024-01-10T13:54:59;-0.20;89.10
37642;DHT22;23486;51.956;5.888;2024-01-10T13:57:24;-0.10;89.00
37642;DHT22;23486;51.956;5.888;2024-01-10T13:59:50;-0.20;89.00
37642;DHT22;23486;51.956;5.888;2024-01-10T14:02:16;-0.20;89.30
37642;DHT22;23486;51.956;5.888;2024-01-10T14:04:43;-0.20;88.80
37642;DHT22;23486;51.956;5.888;2024-01-10T14:07:10;-0.20;89.60
37642;DHT22;23486;51.956;5.888;2024-01-10T14:09:35;-0.20;90.00
37642;DHT22;23486;51.956;5.888;2024-01-10T14:12:01;-0.20;90.20
37642;DHT22;23486;51.956;5.888;2024-01-10T14:14:27;-0.20;90.10
37642;DHT22;23486;51.956;5.888;2024-01-10T14:16:52;-0.20;90.00
37642;DHT22;23486;51.956;5.888;2024-01-10T14:19:18;-0.20;90.10
37642;DHT22;23486;51.956;5.888;2024-01-10T14:21:44;-0.20;90.20
37642;DHT22;23486;51.956;5.888;2024-01-10T14:24:11;-0.20;90.40
37642;DHT22;23486;51.956;5.888;2024-01-10T14:26:37;-0.20;90.30
37642;DHT22;23486;51.956;5.888;2024-01-10T14:29:03;-0.20;90.10
37642;DHT22;23486;51.956;5.888;2024-01-10T14:31:28;-0.20;90.00
37642;DHT22;23486;51.956;5.888;2024-01-10T14:33:54;-0.20;90.10
37642;DHT22;23486;51.956;5.888;2024-01-10T14:36:23;-0.20;90.10
37642;DHT22;23486;51.956;5.888;2024-01-10T14:38:51;-0.20;90.30
37642;DHT22;23486;51.956;5.888;2024-01-10T14:41:23;-0.30;90.20
37642;DHT22;23486;51.956;5.888;2024-01-10T14:43:49;-0.30;90.10
37642;DHT22;23486;51.956;5.888;2024-01-10T14:46:15;-0.30;90.00
37642;DHT22;23486;51.956;5.888;2024-01-10T14:48:41;-0.30;90.00
37642;DHT22;23486;51.956;5.888;2024-01-10T14:51:06;-0.30;89.60
37642;DHT22;23486;51.956;5.888;2024-01-10T14:53:32;-0.30;89.50
37642;DHT22;23486;51.956;5.888;2024-01-10T14:56:03;-0.30;89.10
37642;DHT22;23486;51.956;5.888;2024-01-10T14:58:29;-0.30;89.50
37642;DHT22;23486;51.956;5.888;2024-01-10T15:00:55;-0.40;90.00
37642;DHT22;23486;51.956;5.888;2024-01-10T15:03:21;-0.40;90.30
37642;DHT22;23486;51.956;5.888;2024-01-10T15:05:50;-0.50;90.40
37642;DHT22;23486;51.956;5.888;2024-01-10T15:08:17;-0.50;90.40
37642;DHT22;23486;51.956;5.888;2024-01-10T15:10:42;-0.50;89.60
37642;DHT22;23486;51.956;5.888;2024-01-10T15:13:11;-0.50;90.10
37642;DHT22;23486;51.956;5.888;2024-01-10T15:15:38;-0.50;90.10
37642;DHT22;23486;51.956;5.888;2024-01-10T15:18:04;-0.50;90.40
37642;DHT22;23486;51.956;5.888;2024-01-10T15:20:30;-0.60;90.50
37642;DHT22;23486;51.956;5.888;2024-01-10T15:22:56;-0.60;90.40
37642;DHT22;23486;51.956;5.888;2024-01-10T15:25:23;-0.70;90.50
37642;DHT22;23486;51.956;5.888;2024-01-10T15:27:50;-0.60;90.60
37642;DHT22;23486;51.956;5.888;2024-01-10T15:30:16;-0.70;90.70
37642;DHT22;23486;51.956;5.888;2024-01-10T15:32:41;-0.70;90.80
37642;DHT22;23486;51.956;5.888;2024-01-10T15:35:08;-0.80;91.00
37642;DHT22;23486;51.956;5.888;2024-01-10T15:37:34;-0.80;91.10
37642;DHT22;23486;51.956;5.888;2024-01-10T15:39:59;-0.90;91.30
37642;DHT22;23486;51.956;5.888;2024-01-10T15:42:25;-0.90;91.40
37642;DHT22;23486;51.956;5.888;2024-01-10T15:44:51;-1.00;91.50